Darstellungsparameter: Aktuell verwendete Einstellungen:
Skalierung der Graphiken ... ?
xyx+y,   Skalierungsfaktor:      Skalierung: Modus: x, Faktor: 1
Darstellungszeitraum ... ?
Vom - - bis: - -   Zeitraum: 16.05.2005 - 16.05.2005
Min/Max/Avg-Anzeige ... ?
Zeige MMA aktuell
Zeige MMA Monat
Zeige MMA alles
Zeige --A aktuell
Zeige --A Monat
Zeige --A alles
Keine MMA-Anzeige
MMA:
Average (ber die Originaldaten)
MMA-Basis: 16.05.2005 - 16.05.2005
Quicknavigation für Darstellung... ?
Tage:      1T, 2T, 3T, 5T -1T -2T -3T -5T +1T +2T +3T +5T
Wochen: 1W, 2W, 3W -1W -2W -3W +1W +2W +3W
Monate: 1M, 3M, 6M -1M -3M -6M +1M +3M +6M
Jahre:    1J, 3J, 5J, 10J -1J -3J -5J -10J +1J +3J +5J +10J
Nutze für die Darstellung ... ?
Originaldaten oder Mittelwerte auf ...
Stundenbasis Tagesbasis Wochenbasis
Monatsbasis Jahresbasis      Datenbasis: Original-Daten
Darstellen als:
Statistik (Auto) Statistik J:M      Darstellung:
Zur Graphik,    zurück zur Übersicht aller Sensoren.
 
Tabellarische Datenbersicht: ?
 
Sensor: Nr:Datum:Temp:Abs-Feuchte:Windchill:Wind:
Aussen-T/F 1 16-05-2005 00:00:02 7.6 C 7.17 g/m*3 7.6 C 0 km/h
2 16-05-2005 00:12:02 7.4 C 7.08 g/m*3 7.4 C 0 km/h
3 16-05-2005 00:24:02 7.3 C 7.03 g/m*3 7.3 C 0 km/h
4 16-05-2005 00:36:02 7.2 C 7.06 g/m*3 7.2 C 0 km/h
5 16-05-2005 00:48:02 7 C 6.97 g/m*3 7 C 0 km/h
6 16-05-2005 01:00:02 7 C 6.97 g/m*3 7 C 0 km/h
7 16-05-2005 01:12:01 6.8 C 7.04 g/m*3 6.8 C 0 km/h
8 16-05-2005 01:24:02 6.8 C 7.04 g/m*3 6.8 C 0 km/h
9 16-05-2005 01:36:02 6.6 C 6.95 g/m*3 6.6 C 0 km/h
10 16-05-2005 01:48:02 6.5 C 6.9 g/m*3 6.5 C 0 km/h
11 16-05-2005 02:00:02 6.4 C 6.85 g/m*3 6.4 C 0 km/h
12 16-05-2005 02:12:02 6.4 C 6.85 g/m*3 6.4 C 0 km/h
13 16-05-2005 02:24:02 6.2 C 6.77 g/m*3 6.2 C 0 km/h
14 16-05-2005 02:36:02 6 C 6.68 g/m*3 6 C 0 km/h
15 16-05-2005 02:49:03 5.9 C 6.63 g/m*3 5.9 C 0 km/h
16 16-05-2005 03:01:04 5.9 C 6.71 g/m*3 5.9 C 0 km/h
17 16-05-2005 03:13:03 5.7 C 6.62 g/m*3 5.7 C 0 km/h
18 16-05-2005 03:25:03 5.7 C 6.62 g/m*3 5.7 C 0 km/h
19 16-05-2005 03:37:02 5.8 C 6.73 g/m*3 5.8 C 0 km/h
20 16-05-2005 03:49:02 5.9 C 6.78 g/m*3 5.9 C 0 km/h
21 16-05-2005 04:01:03 5.8 C 6.73 g/m*3 5.8 C 0 km/h
22 16-05-2005 04:13:03 5.5 C 6.53 g/m*3 5.5 C 0 km/h
23 16-05-2005 04:25:02 5.4 C 6.49 g/m*3 5.4 C 0 km/h
24 16-05-2005 04:37:02 5.2 C 6.4 g/m*3 5.2 C 0 km/h
25 16-05-2005 04:49:02 5.4 C 6.49 g/m*3 5.4 C 0 km/h
Sensor: Nr:Datum:Temp:Abs-Feuchte:Windchill:Wind:
Aussen-T/F 26 16-05-2005 05:01:02 5.6 C 6.65 g/m*3 5.6 C 0 km/h
27 16-05-2005 05:13:02 5.4 C 6.56 g/m*3 5.4 C 0 km/h
28 16-05-2005 05:25:03 5.4 C 6.56 g/m*3 5.4 C 0 km/h
29 16-05-2005 05:37:02 5.3 C 6.52 g/m*3 5.3 C 0 km/h
30 16-05-2005 05:49:02 5.4 C 6.56 g/m*3 5.4 C 0 km/h
31 16-05-2005 06:01:02 5.4 C 6.56 g/m*3 5.4 C 0 km/h
32 16-05-2005 06:13:02 5.4 C 6.56 g/m*3 5.4 C 0 km/h
33 16-05-2005 06:25:02 5.6 C 6.72 g/m*3 5.6 C 0 km/h
34 16-05-2005 06:37:01 5.6 C 6.72 g/m*3 5.6 C 0 km/h
35 16-05-2005 06:49:02 5.6 C 6.65 g/m*3 5.6 C 0 km/h
36 16-05-2005 07:01:02 5.5 C 6.6 g/m*3 5.5 C 0 km/h
37 16-05-2005 07:13:02 5.4 C 6.56 g/m*3 5.4 C 0 km/h
38 16-05-2005 07:25:02 5.5 C 6.6 g/m*3 5.5 C 0 km/h
39 16-05-2005 07:37:02 5.7 C 6.69 g/m*3 5.7 C 0 km/h
40 16-05-2005 07:49:03 6.1 C 6.79 g/m*3 6.1 C 0 km/h
41 16-05-2005 08:01:02 6.8 C 7.11 g/m*3 6.8 C 0 km/h
42 16-05-2005 08:13:02 6.6 C 6.72 g/m*3 6.6 C 0 km/h
43 16-05-2005 08:25:02 6.7 C 6.69 g/m*3 6.7 C 0 km/h
44 16-05-2005 08:37:02 6.9 C 6.77 g/m*3 6.9 C 0 km/h
45 16-05-2005 08:49:01 7.2 C 6.75 g/m*3 7.2 C 0 km/h
46 16-05-2005 09:01:02 7.9 C 7.06 g/m*3 7.9 C 0 km/h
47 16-05-2005 09:13:02 8.6 C 7.13 g/m*3 8.6 C 0 km/h
48 16-05-2005 09:25:02 9.4 C 7.15 g/m*3 9.4 C 0 km/h
49 16-05-2005 09:37:01 9.1 C 6.74 g/m*3 9.1 C 0 km/h
50 16-05-2005 09:49:02 9.1 C 6.83 g/m*3 9.1 C 0 km/h
Sensor: Nr:Datum:Temp:Abs-Feuchte:Windchill:Wind:
Aussen-T/F 51 16-05-2005 10:01:03 9.6 C 7.05 g/m*3 9.6 C 0 km/h
52 16-05-2005 10:13:03 10.6 C 7.42 g/m*3 10.6 C 0 km/h
53 16-05-2005 10:25:03 11.1 C 7.35 g/m*3 11.1 C 0 km/h
54 16-05-2005 10:37:02 11.8 C 7.47 g/m*3 11.8 C 0 km/h
55 16-05-2005 10:49:02 12.6 C 7.52 g/m*3 12.6 C 0 km/h
56 16-05-2005 11:01:02 13.4 C 7.79 g/m*3 13.4 C 0 km/h
57 16-05-2005 11:13:03 14.1 C 7.65 g/m*3 14.1 C 0 km/h
58 16-05-2005 11:25:02 14.8 C 7.98 g/m*3 14.8 C 0 km/h
59 16-05-2005 11:37:02 15.4 C 7.88 g/m*3 15.4 C 0 km/h
60 16-05-2005 11:49:02 16 C 7.63 g/m*3 16 C 0 km/h
61 16-05-2005 12:01:02 16.4 C 7.12 g/m*3 16.4 C 0 km/h
62 16-05-2005 12:13:02 16.9 C 6.76 g/m*3 16.9 C 0 km/h
63 16-05-2005 12:25:02 17 C 6.95 g/m*3 17 C 0 km/h
64 16-05-2005 12:37:02 17.8 C 6.37 g/m*3 17.8 C 0 km/h
65 16-05-2005 12:49:02 18.7 C 6.08 g/m*3 18.7 C 0 km/h
66 16-05-2005 13:01:03 18.9 C 6.16 g/m*3 18.9 C 0 km/h
67 16-05-2005 13:13:03 20.4 C 6.19 g/m*3 20.4 C 0 km/h
68 16-05-2005 13:25:02 20.5 C 5.52 g/m*3 20.5 C 0 km/h
69 16-05-2005 13:37:02 21.6 C 5.69 g/m*3 21.6 C 0 km/h
70 16-05-2005 13:49:02 21.6 C 5.69 g/m*3 21.6 C 0 km/h
71 16-05-2005 14:01:03 20.6 C 5.73 g/m*3 20.6 C 0 km/h
72 16-05-2005 14:13:03 21.3 C 5.78 g/m*3 21.3 C 0 km/h
73 16-05-2005 14:25:02 22.1 C 5.66 g/m*3 22.1 C 0 km/h
74 16-05-2005 14:37:02 22.5 C 5.19 g/m*3 22.5 C 0 km/h
75 16-05-2005 14:49:02 21.5 C 5.09 g/m*3 21.5 C 0 km/h
Sensor: Nr:Datum:Temp:Abs-Feuchte:Windchill:Wind:
Aussen-T/F 76 16-05-2005 15:01:02 22.3 C 5.33 g/m*3 22.3 C 0 km/h
77 16-05-2005 15:13:02 22.7 C 5.46 g/m*3 22.7 C 0 km/h
78 16-05-2005 15:25:02 22.7 C 5.05 g/m*3 22.7 C 0 km/h
79 16-05-2005 15:37:02 21.5 C 4.9 g/m*3 21.5 C 0 km/h
80 16-05-2005 15:49:02 22.5 C 5.19 g/m*3 22.5 C 0 km/h
81 16-05-2005 16:01:02 22.7 C 5.05 g/m*3 22.7 C 0 km/h
82 16-05-2005 16:13:02 21.9 C 4.82 g/m*3 21.9 C 0 km/h
83 16-05-2005 16:25:02 21.3 C 4.85 g/m*3 21.3 C 0 km/h
84 16-05-2005 16:37:02 20.4 C 5.31 g/m*3 20.4 C 0 km/h
85 16-05-2005 16:49:02 19.3 C 5.14 g/m*3 19.3 C 0 km/h
86 16-05-2005 17:01:02 18.9 C 5.35 g/m*3 18.9 C 0 km/h
87 16-05-2005 17:13:03 18.6 C 5.57 g/m*3 18.6 C 0 km/h
88 16-05-2005 17:25:01 18.6 C 5.89 g/m*3 18.6 C 0 km/h
89 16-05-2005 17:37:02 18.6 C 7.16 g/m*3 18.6 C 0 km/h
90 16-05-2005 17:49:02 18.4 C 7.39 g/m*3 18.4 C 0 km/h
91 16-05-2005 18:01:02 18.1 C 7.26 g/m*3 18.1 C 0 km/h
92 16-05-2005 18:13:02 17.7 C 7.09 g/m*3 17.7 C 0 km/h
93 16-05-2005 18:25:02 17.6 C 7.2 g/m*3 17.6 C 0 km/h
94 16-05-2005 18:37:01 17.6 C 7.5 g/m*3 17.6 C 0 km/h
95 16-05-2005 18:49:02 17.5 C 7.31 g/m*3 17.5 C 0 km/h
96 16-05-2005 19:01:02 17.2 C 7.76 g/m*3 17.2 C 0 km/h
97 16-05-2005 19:13:02 16.6 C 6.36 g/m*3 16.6 C 0 km/h
98 16-05-2005 19:25:40 16.3 C 6.24 g/m*3 16.3 C 0 km/h
99 16-05-2005 19:37:40 16.1 C 6.58 g/m*3 16.1 C 0 km/h
100 16-05-2005 19:49:41 16 C 6.81 g/m*3 16 C 0 km/h
Sensor: Nr:Datum:Temp:Abs-Feuchte:Windchill:Wind:
Aussen-T/F 101 16-05-2005 20:01:41 15.7 C 7.23 g/m*3 15.7 C 0 km/h
102 16-05-2005 20:13:41 15.6 C 7.45 g/m*3 15.6 C 0 km/h
103 16-05-2005 20:25:41 15.4 C 7.36 g/m*3 15.4 C 0 km/h
104 16-05-2005 20:37:41 15.1 C 7.22 g/m*3 15.1 C 0 km/h
105 16-05-2005 20:49:41 14.8 C 7.35 g/m*3 14.8 C 0 km/h
106 16-05-2005 21:01:41 14.7 C 7.18 g/m*3 14.7 C 0 km/h
107 16-05-2005 21:13:41 14.5 C 7.34 g/m*3 14.5 C 0 km/h
108 16-05-2005 21:25:41 14.2 C 7.45 g/m*3 14.2 C 0 km/h
109 16-05-2005 21:37:41 14.1 C 7.4 g/m*3 14.1 C 0 km/h
110 16-05-2005 21:49:41 13.8 C 7.86 g/m*3 13.8 C 0 km/h
111 16-05-2005 22:01:41 13.5 C 8.19 g/m*3 13.5 C 0 km/h
112 16-05-2005 22:13:41 13.3 C 8.32 g/m*3 13.3 C 0 km/h
113 16-05-2005 22:25:02 12.8 C 8.62 g/m*3 12.8 C 0 km/h
114 16-05-2005 22:37:02 12.4 C 8.74 g/m*3 12.4 C 0 km/h
115 16-05-2005 22:49:02 12.2 C 8.85 g/m*3 12.2 C 0 km/h
116 16-05-2005 23:01:02 11.8 C 8.74 g/m*3 11.8 C 0 km/h
117 16-05-2005 23:13:02 11.9 C 8.68 g/m*3 11.9 C 0 km/h
118 16-05-2005 23:25:02 12 C 8.53 g/m*3 12 C 0 km/h
119 16-05-2005 23:37:02 12 C 8.42 g/m*3 12 C 0 km/h
120 16-05-2005 23:49:02 12.1 C 8.47 g/m*3 12.1 C 0 km/h

Legende:
   Min
   Max


Maximal/Minimal-Werte vom 16.05.2005 - 16.05.2005

Sensor Min Max Avg
Temp
(Aussen-T/F)
5.2 °C
16-05-2005  04:37:02
22.7 °C
16-05-2005  15:13:02
12.49 °C
Abs-Feuchte
(Aussen-T/F)
4.82 g/m*3
16-05-2005  16:13:02
8.85 g/m*3
16-05-2005  22:49:02
6.74 g/m*3
Windchill
(Aussen-T/F)
5.2 C
16-05-2005  04:37:02
22.7 C
16-05-2005  15:13:02
12.39 C

Die Daten stammen von einer Davis Vantage Pro 2 Wetter-Station und werden unter Linux mit der Software wview2wettercgi und aufbereitet. Alle Angaben erfolgen ohne Gewähr für ihre Vollständigkeit oder Richtigkeit.
Kontakt: Rainer Krienke krienke@uni-koblenz.de . Meine Webseiten an der Uni Koblenz oder privat.
Version: $Revision: 0.78 $